SJV675 WAGG-WARR
Flight info
| Callsign | SJV675 |
|---|---|
| Flight time | 1h 1m |
| Altitude | 36000 |
| Route | BDM W31 IKAPI W31W RITBO |
| Aircraft | A320/M-SDE3FGHIRWY/LB1 |
Departure
| Time | 2026-05-01 14:08 |
|---|---|
| Airport | Tjilik Riwut Airport (WAGG) |
Arrival
| Time | 2026-05-01 15:09 |
|---|---|
| Airport | Juanda International Airport (WARR) |
| Time | Latitude | Longitude | Altitude | Speed | Heading |
|---|---|---|---|---|---|
| 2026-05-01 13:44 | -2.23163 | 113.94766 | 90 ft | 0 kts | 71° |
| 2026-05-01 13:51 | -2.23164 | 113.94761 | 90 ft | 0 kts | 71° |
| 2026-05-01 13:59 | -2.23169 | 113.94747 | 90 ft | 2 kts | 71° |
| 2026-05-01 13:59 | -2.23172 | 113.94737 | 90 ft | 1 kts | 71° |
| 2026-05-01 13:59 | -2.23179 | 113.94724 | 90 ft | 2 kts | 46° |
| 2026-05-01 13:59 | -2.23191 | 113.94716 | 90 ft | 2 kts | 24° |
| 2026-05-01 14:00 | -2.23205 | 113.94712 | 90 ft | 2 kts | 0° |
| 2026-05-01 14:00 | -2.23217 | 113.94714 | 90 ft | 0 kts | 342° |
| 2026-05-01 14:00 | -2.23224 | 113.94716 | 90 ft | 0 kts | 338° |
| 2026-05-01 14:03 | -2.23212 | 113.94711 | 90 ft | 4 kts | 338° |
| 2026-05-01 14:03 | -2.23171 | 113.94695 | 90 ft | 7 kts | 338° |
| 2026-05-01 14:03 | -2.23145 | 113.94684 | 90 ft | 4 kts | 324° |
| 2026-05-01 14:03 | -2.23137 | 113.94648 | 90 ft | 6 kts | 256° |
| 2026-05-01 14:04 | -2.23156 | 113.94595 | 90 ft | 9 kts | 249° |
| 2026-05-01 14:04 | -2.23174 | 113.94543 | 90 ft | 5 kts | 269° |
| 2026-05-01 14:04 | -2.23141 | 113.94504 | 90 ft | 11 kts | 334° |
| 2026-05-01 14:04 | -2.23083 | 113.94481 | 90 ft | 16 kts | 339° |
| 2026-05-01 14:05 | -2.22906 | 113.94412 | 90 ft | 24 kts | 339° |
| 2026-05-01 14:05 | -2.22837 | 113.94385 | 90 ft | 26 kts | 339° |
| 2026-05-01 14:05 | -2.22649 | 113.94314 | 90 ft | 31 kts | 339° |
| 2026-05-01 14:05 | -2.22445 | 113.94235 | 90 ft | 30 kts | 339° |
| 2026-05-01 14:06 | -2.22249 | 113.94160 | 90 ft | 29 kts | 339° |
| 2026-05-01 14:06 | -2.22063 | 113.94090 | 90 ft | 27 kts | 339° |
| 2026-05-01 14:06 | -2.21889 | 113.94023 | 90 ft | 22 kts | 339° |
| 2026-05-01 14:06 | -2.21815 | 113.93995 | 90 ft | 9 kts | 338° |
| 2026-05-01 14:07 | -2.21761 | 113.93947 | 90 ft | 10 kts | 310° |
| 2026-05-01 14:07 | -2.21729 | 113.93964 | 90 ft | 9 kts | 124° |
| 2026-05-01 14:07 | -2.21800 | 113.93989 | 90 ft | 14 kts | 159° |
| 2026-05-01 14:08 | -2.22990 | 113.94446 | 91 ft | 166 kts | 159° |
| 2026-05-01 14:08 | -2.24123 | 113.94883 | 827 ft | 174 kts | 159° |
| 2026-05-01 14:08 | -2.25310 | 113.95348 | 1531 ft | 194 kts | 157° |
| 2026-05-01 14:08 | -2.26499 | 113.96215 | 1676 ft | 235 kts | 124° |
| 2026-05-01 14:09 | -2.27192 | 113.97725 | 1905 ft | 254 kts | 108° |
| 2026-05-01 14:09 | -2.27711 | 113.99425 | 2129 ft | 257 kts | 109° |
| 2026-05-01 14:09 | -2.28640 | 114.00954 | 2341 ft | 258 kts | 136° |
| 2026-05-01 14:09 | -2.30109 | 114.02032 | 2665 ft | 264 kts | 148° |
| 2026-05-01 14:10 | -2.31713 | 114.02971 | 3610 ft | 268 kts | 150° |
| 2026-05-01 14:10 | -2.33287 | 114.03882 | 4716 ft | 267 kts | 149° |
| 2026-05-01 14:10 | -2.34909 | 114.04843 | 5701 ft | 271 kts | 149° |
| 2026-05-01 14:10 | -2.36521 | 114.05819 | 6643 ft | 275 kts | 148° |
| 2026-05-01 14:11 | -2.38170 | 114.06833 | 7584 ft | 278 kts | 148° |
| 2026-05-01 14:11 | -2.41518 | 114.08916 | 9378 ft | 286 kts | 148° |
| 2026-05-01 14:11 | -2.43254 | 114.10002 | 10232 ft | 289 kts | 148° |
| 2026-05-01 14:12 | -2.45039 | 114.11121 | 10811 ft | 303 kts | 148° |
| 2026-05-01 14:12 | -2.46893 | 114.12283 | 11201 ft | 321 kts | 148° |
| 2026-05-01 14:12 | -2.48862 | 114.13519 | 11560 ft | 339 kts | 148° |
| 2026-05-01 14:12 | -2.50947 | 114.14829 | 12043 ft | 352 kts | 148° |
| 2026-05-01 14:13 | -2.53058 | 114.16155 | 12791 ft | 356 kts | 148° |
| 2026-05-01 14:13 | -2.54455 | 114.17032 | 13289 ft | 358 kts | 148° |
| 2026-05-01 14:13 | -2.57329 | 114.18838 | 14242 ft | 363 kts | 148° |
| 2026-05-01 14:13 | -2.59475 | 114.20187 | 14920 ft | 366 kts | 148° |
| 2026-05-01 14:14 | -2.61659 | 114.21558 | 15588 ft | 370 kts | 148° |
| 2026-05-01 14:14 | -2.63855 | 114.22938 | 16237 ft | 374 kts | 148° |
| 2026-05-01 14:14 | -2.66091 | 114.24344 | 16873 ft | 377 kts | 148° |
| 2026-05-01 14:14 | -2.68350 | 114.25764 | 17494 ft | 381 kts | 148° |
| 2026-05-01 14:15 | -2.70637 | 114.27202 | 18102 ft | 384 kts | 148° |
| 2026-05-01 14:15 | -2.72928 | 114.28642 | 18694 ft | 387 kts | 148° |
| 2026-05-01 14:15 | -2.75230 | 114.30089 | 19270 ft | 391 kts | 148° |
| 2026-05-01 14:15 | -2.77548 | 114.31546 | 19832 ft | 394 kts | 148° |
| 2026-05-01 14:16 | -2.79864 | 114.33003 | 20375 ft | 397 kts | 148° |
| 2026-05-01 14:16 | -2.82210 | 114.34478 | 20906 ft | 401 kts | 148° |
| 2026-05-01 14:16 | -2.84610 | 114.35987 | 21429 ft | 404 kts | 148° |
| 2026-05-01 14:16 | -2.86999 | 114.37489 | 21931 ft | 407 kts | 148° |
| 2026-05-01 14:17 | -2.89433 | 114.39020 | 22428 ft | 410 kts | 148° |
| 2026-05-01 14:17 | -2.91851 | 114.40540 | 22900 ft | 413 kts | 148° |
| 2026-05-01 14:17 | -2.94320 | 114.42093 | 23367 ft | 416 kts | 148° |
| 2026-05-01 14:17 | -2.96787 | 114.43645 | 23821 ft | 419 kts | 148° |
| 2026-05-01 14:18 | -2.99238 | 114.45185 | 24257 ft | 421 kts | 148° |
| 2026-05-01 14:18 | -3.01763 | 114.46774 | 24694 ft | 424 kts | 148° |
| 2026-05-01 14:18 | -3.03455 | 114.47838 | 24979 ft | 426 kts | 148° |
| 2026-05-01 14:18 | -3.05981 | 114.49427 | 25394 ft | 429 kts | 148° |
| 2026-05-01 14:19 | -3.09356 | 114.51550 | 25932 ft | 432 kts | 148° |
| 2026-05-01 14:19 | -3.11889 | 114.53140 | 26325 ft | 435 kts | 148° |
| 2026-05-01 14:19 | -3.14481 | 114.54760 | 26716 ft | 438 kts | 148° |
| 2026-05-01 14:19 | -3.17098 | 114.56400 | 27101 ft | 440 kts | 148° |
| 2026-05-01 14:20 | -3.19692 | 114.58028 | 27477 ft | 443 kts | 148° |
| 2026-05-01 14:20 | -3.24669 | 114.61158 | 28164 ft | 447 kts | 148° |
| 2026-05-01 14:20 | -3.27311 | 114.62822 | 28518 ft | 450 kts | 148° |
| 2026-05-01 14:21 | -3.29954 | 114.64487 | 28859 ft | 452 kts | 148° |
| 2026-05-01 14:21 | -3.32587 | 114.66151 | 29196 ft | 454 kts | 148° |
| 2026-05-01 14:21 | -3.35176 | 114.67790 | 29622 ft | 453 kts | 149° |
| 2026-05-01 14:22 | -3.40946 | 114.70136 | 30527 ft | 450 kts | 168° |
| 2026-05-01 14:22 | -3.44060 | 114.70538 | 30961 ft | 449 kts | 177° |
| 2026-05-01 14:22 | -3.47155 | 114.70409 | 31363 ft | 448 kts | 187° |
| 2026-05-01 14:22 | -3.50199 | 114.69760 | 31743 ft | 448 kts | 197° |
| 2026-05-01 14:23 | -3.52988 | 114.68669 | 32116 ft | 447 kts | 205° |
| 2026-05-01 14:23 | -3.55775 | 114.67310 | 32513 ft | 446 kts | 206° |
| 2026-05-01 14:23 | -3.57611 | 114.66382 | 32767 ft | 446 kts | 207° |
| 2026-05-01 14:23 | -3.61337 | 114.64490 | 33273 ft | 445 kts | 207° |
| 2026-05-01 14:24 | -3.63173 | 114.63563 | 33519 ft | 445 kts | 206° |
| 2026-05-01 14:24 | -3.66876 | 114.61706 | 34007 ft | 444 kts | 206° |
| 2026-05-01 14:24 | -3.69650 | 114.60322 | 34350 ft | 443 kts | 206° |
| 2026-05-01 14:24 | -3.72438 | 114.58934 | 34640 ft | 444 kts | 206° |
| 2026-05-01 14:25 | -3.75208 | 114.57558 | 34895 ft | 446 kts | 206° |
| 2026-05-01 14:25 | -3.78004 | 114.56168 | 35144 ft | 447 kts | 206° |
| 2026-05-01 14:25 | -3.80814 | 114.54775 | 35391 ft | 448 kts | 206° |
| 2026-05-01 14:25 | -3.83607 | 114.53388 | 35626 ft | 449 kts | 206° |
| 2026-05-01 14:26 | -3.86423 | 114.51990 | 35852 ft | 449 kts | 206° |
| 2026-05-01 14:26 | -3.92100 | 114.49173 | 35962 ft | 451 kts | 206° |
| 2026-05-01 14:27 | -3.97762 | 114.46363 | 35968 ft | 451 kts | 206° |
| 2026-05-01 14:27 | -4.03473 | 114.43528 | 35969 ft | 451 kts | 206° |
| 2026-05-01 14:28 | -4.11996 | 114.39299 | 35969 ft | 452 kts | 206° |
| 2026-05-01 14:28 | -4.17692 | 114.36485 | 35969 ft | 452 kts | 206° |
| 2026-05-01 14:29 | -4.23367 | 114.33665 | 35969 ft | 452 kts | 206° |
| 2026-05-01 14:30 | -4.34748 | 114.27973 | 35969 ft | 452 kts | 206° |
| 2026-05-01 14:31 | -4.43202 | 114.23767 | 35969 ft | 452 kts | 206° |
| 2026-05-01 14:31 | -4.48863 | 114.20953 | 35969 ft | 452 kts | 206° |
| 2026-05-01 14:32 | -4.54087 | 114.17399 | 35970 ft | 452 kts | 221° |
| 2026-05-01 14:32 | -4.58714 | 114.13080 | 35969 ft | 452 kts | 223° |
| 2026-05-01 14:33 | -4.63321 | 114.08735 | 35969 ft | 452 kts | 223° |
| 2026-05-01 14:33 | -4.67961 | 114.04393 | 35969 ft | 452 kts | 223° |
| 2026-05-01 14:34 | -4.72599 | 114.00070 | 35969 ft | 452 kts | 223° |
| 2026-05-01 14:34 | -4.77264 | 113.95726 | 35969 ft | 452 kts | 223° |
| 2026-05-01 14:35 | -4.81906 | 113.91406 | 35969 ft | 452 kts | 223° |
| 2026-05-01 14:35 | -4.86591 | 113.87044 | 35969 ft | 452 kts | 223° |
| 2026-05-01 14:36 | -4.91256 | 113.82701 | 35969 ft | 452 kts | 223° |
| 2026-05-01 14:36 | -4.95939 | 113.78340 | 35969 ft | 452 kts | 223° |
| 2026-05-01 14:37 | -5.00566 | 113.74030 | 35969 ft | 452 kts | 223° |
| 2026-05-01 14:37 | -5.05222 | 113.69692 | 35969 ft | 452 kts | 223° |
| 2026-05-01 14:38 | -5.09846 | 113.65384 | 35969 ft | 452 kts | 223° |
| 2026-05-01 14:38 | -5.13477 | 113.62015 | 35969 ft | 452 kts | 223° |
| 2026-05-01 14:39 | -5.18918 | 113.56969 | 35969 ft | 452 kts | 223° |
| 2026-05-01 14:39 | -5.23578 | 113.52632 | 35969 ft | 452 kts | 223° |
| 2026-05-01 14:40 | -5.28232 | 113.48294 | 35969 ft | 452 kts | 223° |
| 2026-05-01 14:40 | -5.32882 | 113.43957 | 35969 ft | 452 kts | 223° |
| 2026-05-01 14:41 | -5.37583 | 113.39570 | 35969 ft | 452 kts | 223° |
| 2026-05-01 14:41 | -5.42212 | 113.35249 | 35969 ft | 452 kts | 223° |
| 2026-05-01 14:42 | -5.46866 | 113.30881 | 35969 ft | 452 kts | 223° |
| 2026-05-01 14:42 | -5.51502 | 113.26533 | 35969 ft | 452 kts | 223° |
| 2026-05-01 14:43 | -5.56144 | 113.22191 | 35969 ft | 452 kts | 223° |
| 2026-05-01 14:43 | -5.60734 | 113.17902 | 35969 ft | 452 kts | 223° |
| 2026-05-01 14:44 | -5.65444 | 113.13502 | 35852 ft | 453 kts | 223° |
| 2026-05-01 14:44 | -5.70106 | 113.09144 | 34626 ft | 453 kts | 223° |
| 2026-05-01 14:44 | -5.72447 | 113.06944 | 33753 ft | 458 kts | 223° |
| 2026-05-01 14:45 | -5.74801 | 113.04732 | 32774 ft | 464 kts | 223° |
| 2026-05-01 14:45 | -5.79585 | 113.00246 | 30960 ft | 469 kts | 223° |
| 2026-05-01 14:45 | -5.81991 | 112.97995 | 30059 ft | 471 kts | 223° |
| 2026-05-01 14:46 | -5.84110 | 112.96012 | 29238 ft | 472 kts | 223° |
| 2026-05-01 14:46 | -5.89344 | 112.91928 | 27673 ft | 467 kts | 212° |
| 2026-05-01 14:46 | -5.92162 | 112.90319 | 27081 ft | 460 kts | 207° |
| 2026-05-01 14:47 | -5.95073 | 112.88824 | 26441 ft | 455 kts | 206° |
| 2026-05-01 14:47 | -5.97947 | 112.87385 | 25798 ft | 451 kts | 206° |
| 2026-05-01 14:47 | -6.00765 | 112.85976 | 25174 ft | 447 kts | 206° |
| 2026-05-01 14:48 | -6.06332 | 112.83178 | 23923 ft | 439 kts | 206° |
| 2026-05-01 14:48 | -6.09056 | 112.81804 | 23254 ft | 425 kts | 206° |
| 2026-05-01 14:48 | -6.14029 | 112.79298 | 21476 ft | 422 kts | 206° |
| 2026-05-01 14:49 | -6.19270 | 112.76657 | 20592 ft | 409 kts | 206° |
| 2026-05-01 14:49 | -6.24407 | 112.74058 | 19605 ft | 401 kts | 206° |
| 2026-05-01 14:50 | -6.27732 | 112.72375 | 18950 ft | 397 kts | 206° |
| 2026-05-01 14:50 | -6.34355 | 112.69019 | 17631 ft | 388 kts | 206° |
| 2026-05-01 14:51 | -6.36831 | 112.67764 | 17134 ft | 386 kts | 206° |
| 2026-05-01 14:51 | -6.41698 | 112.65296 | 16153 ft | 380 kts | 206° |
| 2026-05-01 14:52 | -6.46451 | 112.62886 | 15189 ft | 375 kts | 206° |
| 2026-05-01 14:52 | -6.48795 | 112.61697 | 14713 ft | 372 kts | 206° |
| 2026-05-01 14:52 | -6.53464 | 112.59326 | 13760 ft | 368 kts | 206° |
| 2026-05-01 14:53 | -6.55756 | 112.58163 | 13290 ft | 365 kts | 206° |
| 2026-05-01 14:53 | -6.58019 | 112.57014 | 13014 ft | 357 kts | 206° |
| 2026-05-01 14:53 | -6.60263 | 112.55875 | 12994 ft | 356 kts | 206° |
| 2026-05-01 14:53 | -6.62479 | 112.54749 | 12944 ft | 353 kts | 206° |
| 2026-05-01 14:54 | -6.64690 | 112.53625 | 12366 ft | 356 kts | 206° |
| 2026-05-01 14:54 | -6.66950 | 112.52477 | 11935 ft | 352 kts | 207° |
| 2026-05-01 14:54 | -6.69132 | 112.51367 | 11605 ft | 345 kts | 206° |
| 2026-05-01 14:54 | -6.71308 | 112.50262 | 11279 ft | 339 kts | 206° |
| 2026-05-01 14:55 | -6.73432 | 112.49183 | 11065 ft | 330 kts | 206° |
| 2026-05-01 14:55 | -6.75467 | 112.48152 | 10990 ft | 317 kts | 205° |
| 2026-05-01 14:55 | -6.77590 | 112.47506 | 10651 ft | 313 kts | 185° |
| 2026-05-01 14:55 | -6.79819 | 112.47596 | 10324 ft | 312 kts | 173° |
| 2026-05-01 14:56 | -6.81989 | 112.47874 | 10021 ft | 311 kts | 172° |
| 2026-05-01 14:56 | -6.84097 | 112.48158 | 9732 ft | 309 kts | 172° |
| 2026-05-01 14:56 | -6.86258 | 112.48438 | 9446 ft | 307 kts | 173° |
| 2026-05-01 14:56 | -6.88372 | 112.48698 | 9168 ft | 303 kts | 173° |
| 2026-05-01 14:57 | -6.90444 | 112.48946 | 8892 ft | 298 kts | 173° |
| 2026-05-01 14:57 | -6.94425 | 112.49414 | 8177 ft | 283 kts | 173° |
| 2026-05-01 14:57 | -6.96367 | 112.49641 | 7927 ft | 279 kts | 173° |
| 2026-05-01 14:58 | -6.98278 | 112.49865 | 7685 ft | 275 kts | 173° |
| 2026-05-01 14:58 | -7.00162 | 112.50083 | 7526 ft | 267 kts | 173° |
| 2026-05-01 14:58 | -7.01979 | 112.50291 | 7498 ft | 257 kts | 173° |
| 2026-05-01 14:58 | -7.03756 | 112.50494 | 7353 ft | 258 kts | 173° |
| 2026-05-01 14:59 | -7.05553 | 112.50697 | 7045 ft | 258 kts | 173° |
| 2026-05-01 14:59 | -7.07309 | 112.50896 | 6762 ft | 257 kts | 173° |
| 2026-05-01 14:59 | -7.09113 | 112.51100 | 6478 ft | 256 kts | 173° |
| 2026-05-01 14:59 | -7.10870 | 112.51299 | 6204 ft | 255 kts | 173° |
| 2026-05-01 15:00 | -7.14375 | 112.51693 | 5660 ft | 253 kts | 173° |
| 2026-05-01 15:00 | -7.16122 | 112.51890 | 5390 ft | 251 kts | 173° |
| 2026-05-01 15:00 | -7.17861 | 112.52086 | 5121 ft | 250 kts | 173° |
| 2026-05-01 15:01 | -7.19583 | 112.52280 | 4855 ft | 249 kts | 173° |
| 2026-05-01 15:01 | -7.21304 | 112.52473 | 4589 ft | 248 kts | 173° |
| 2026-05-01 15:01 | -7.23030 | 112.52668 | 4322 ft | 248 kts | 173° |
| 2026-05-01 15:01 | -7.24772 | 112.52865 | 4053 ft | 246 kts | 173° |
| 2026-05-01 15:02 | -7.26437 | 112.53052 | 3796 ft | 236 kts | 173° |
| 2026-05-01 15:02 | -7.26997 | 112.53116 | 3710 ft | 236 kts | 173° |
| 2026-05-01 15:02 | -7.29720 | 112.53424 | 3500 ft | 225 kts | 173° |
| 2026-05-01 15:02 | -7.31264 | 112.53599 | 3488 ft | 214 kts | 173° |
| 2026-05-01 15:03 | -7.32714 | 112.53778 | 3480 ft | 202 kts | 167° |
| 2026-05-01 15:03 | -7.33879 | 112.54449 | 3453 ft | 193 kts | 125° |
| 2026-05-01 15:03 | -7.34363 | 112.55711 | 3495 ft | 193 kts | 100° |
| 2026-05-01 15:03 | -7.34559 | 112.57057 | 3493 ft | 193 kts | 97° |
| 2026-05-01 15:04 | -7.34721 | 112.58398 | 3491 ft | 193 kts | 97° |
| 2026-05-01 15:04 | -7.34903 | 112.59751 | 3425 ft | 192 kts | 98° |
| 2026-05-01 15:04 | -7.35100 | 112.61059 | 3258 ft | 185 kts | 98° |
| 2026-05-01 15:04 | -7.35309 | 112.62354 | 2996 ft | 184 kts | 99° |
| 2026-05-01 15:05 | -7.35520 | 112.63627 | 2741 ft | 182 kts | 99° |
| 2026-05-01 15:05 | -7.35732 | 112.64899 | 2484 ft | 177 kts | 99° |
| 2026-05-01 15:05 | -7.35930 | 112.66097 | 2250 ft | 167 kts | 99° |
| 2026-05-01 15:05 | -7.36118 | 112.67236 | 2038 ft | 155 kts | 99° |
| 2026-05-01 15:06 | -7.36288 | 112.68266 | 1819 ft | 143 kts | 99° |
| 2026-05-01 15:06 | -7.36418 | 112.69055 | 1656 ft | 138 kts | 99° |
| 2026-05-01 15:06 | -7.36576 | 112.70022 | 1469 ft | 138 kts | 99° |
| 2026-05-01 15:06 | -7.36733 | 112.70988 | 1282 ft | 137 kts | 99° |
| 2026-05-01 15:07 | -7.36887 | 112.71938 | 1098 ft | 137 kts | 99° |
| 2026-05-01 15:07 | -7.37045 | 112.72910 | 910 ft | 137 kts | 99° |
| 2026-05-01 15:07 | -7.37199 | 112.73860 | 728 ft | 136 kts | 99° |
| 2026-05-01 15:07 | -7.37355 | 112.74822 | 543 ft | 136 kts | 99° |
| 2026-05-01 15:08 | -7.37509 | 112.75771 | 361 ft | 136 kts | 99° |
| 2026-05-01 15:08 | -7.37664 | 112.76710 | 181 ft | 135 kts | 99° |
| 2026-05-01 15:08 | -7.37818 | 112.77670 | 28 ft | 133 kts | 98° |
| 2026-05-01 15:08 | -7.37954 | 112.78505 | 20 ft | 98 kts | 98° |
| 2026-05-01 15:09 | -7.38039 | 112.79030 | 20 ft | 50 kts | 100° |
| 2026-05-01 15:09 | -7.38041 | 112.79230 | 19 ft | 13 kts | 76° |
| 2026-05-01 15:09 | -7.38018 | 112.79313 | 19 ft | 12 kts | 71° |
| 2026-05-01 15:09 | -7.38003 | 112.79353 | 19 ft | 6 kts | 68° |
| 2026-05-01 15:10 | -7.37996 | 112.79370 | 19 ft | 0 kts | 66° |
| 2026-05-01 15:10 | -7.37991 | 112.79379 | 19 ft | 2 kts | 57° |
| 2026-05-01 15:10 | -7.37979 | 112.79394 | 19 ft | 2 kts | 48° |
| 2026-05-01 15:11 | -7.37962 | 112.79406 | 19 ft | 3 kts | 19° |
| 2026-05-01 15:11 | -7.37866 | 112.79423 | 19 ft | 8 kts | 9° |
| 2026-05-01 15:11 | -7.37802 | 112.79433 | 19 ft | 10 kts | 9° |
| 2026-05-01 15:12 | -7.37727 | 112.79445 | 19 ft | 8 kts | 9° |
| 2026-05-01 15:12 | -7.37671 | 112.79411 | 19 ft | 7 kts | 280° |
| 2026-05-01 15:12 | -7.37663 | 112.79362 | 19 ft | 2 kts | 279° |
| 2026-05-01 15:13 | -7.37630 | 112.79338 | 19 ft | 5 kts | 2° |
| 2026-05-01 15:14 | -7.37570 | 112.79347 | 19 ft | 0 kts | 9° |